Time;durP1;ratioP1;P1;durP2;ratioP2;P2;SDS_P1;SDS_P2;PMS_P1;PMS_P2;Temp;Humidity;BMP_temperature;BMP_pressure;BME280_temperature;BME280_humidity;BME280_pressure;Samples;Min_cycle;Max_cycle;Signal;HPM_P1;HPM_P2
2022/11/09 00:01:21;;;;;;;;;;;15.60;71.60;;;;;;5021984;28;20374;-81
2022/11/09 00:03:47;;;;;;;;;;;15.60;71.50;;;;;;5024342;28;19917;-83
2022/11/09 00:06:13;;;;;;;;;;;15.70;71.50;;;;;;5014442;28;19917;-82
2022/11/09 00:08:39;;;;;;;;;;;15.60;71.70;;;;;;5009088;28;20482;-83
2022/11/09 00:11:06;;;;;;;;;;;15.60;71.80;;;;;;5020849;28;19968;-82
2022/11/09 00:13:35;;;;;;;;;;;15.70;71.50;;;;;;5026312;28;20321;-82
2022/11/09 00:16:01;;;;;;;;;;;15.70;71.60;;;;;;5027575;28;20382;-83
2022/11/09 00:18:27;;;;;;;;;;;15.60;71.70;;;;;;5003796;28;19945;-83
2022/11/09 00:20:53;;;;;;;;;;;15.60;71.90;;;;;;5011850;28;20379;-83
2022/11/09 00:23:19;;;;;;;;;;;15.60;72.00;;;;;;5049058;23;19936;-81
2022/11/09 00:25:44;;;;;;;;;;;15.60;72.10;;;;;;5012487;28;19936;-81
2022/11/09 00:28:10;;;;;;;;;;;15.60;72.10;;;;;;5014837;28;19970;-81
2022/11/09 00:30:35;;;;;;;;;;;15.60;72.10;;;;;;5027624;28;19921;-81
2022/11/09 00:33:01;;;;;;;;;;;15.50;72.10;;;;;;5004983;28;19972;-81
2022/11/09 00:35:26;;;;;;;;;;;15.50;72.20;;;;;;5030973;28;19925;-82
2022/11/09 00:37:53;;;;;;;;;;;15.70;71.60;;;;;;5015752;28;20332;-81
2022/11/09 00:40:21;;;;;;;;;;;15.50;72.00;;;;;;5017693;28;19917;-82
2022/11/09 00:42:47;;;;;;;;;;;15.60;71.90;;;;;;5011444;28;19940;-81
2022/11/09 00:45:13;;;;;;;;;;;15.60;71.90;;;;;;5013835;28;20060;-82
2022/11/09 00:47:38;;;;;;;;;;;15.50;71.90;;;;;;5017631;28;19909;-81
2022/11/09 00:50:04;;;;;;;;;;;15.50;72.10;;;;;;5020046;28;19963;-83
2022/11/09 00:52:30;;;;;;;;;;;15.50;72.10;;;;;;5017592;28;19913;-82
2022/11/09 00:54:55;;;;;;;;;;;15.40;72.00;;;;;;5026628;28;19925;-83
2022/11/09 00:57:21;;;;;;;;;;;15.50;72.00;;;;;;5026525;28;19928;-83
2022/11/09 00:59:46;;;;;;;;;;;15.40;72.10;;;;;;5025724;28;19945;-82
2022/11/09 01:02:12;;;;;;;;;;;15.50;72.10;;;;;;5013230;28;19913;-82
2022/11/09 01:04:37;;;;;;;;;;;15.50;72.10;;;;;;5009306;28;19917;-82
2022/11/09 01:07:03;;;;;;;;;;;15.40;72.10;;;;;;5029520;28;19948;-83
2022/11/09 01:09:29;;;;;;;;;;;15.40;72.20;;;;;;5012751;28;19971;-83
2022/11/09 01:11:54;;;;;;;;;;;15.30;72.50;;;;;;5005524;28;20389;-83
2022/11/09 01:14:20;;;;;;;;;;;15.30;72.50;;;;;;5027966;28;19917;-82
2022/11/09 01:16:45;;;;;;;;;;;15.40;72.40;;;;;;5008096;28;19917;-81
2022/11/09 01:19:11;;;;;;;;;;;15.40;72.20;;;;;;5008449;28;19913;-82
2022/11/09 01:21:37;;;;;;;;;;;15.40;72.00;;;;;;5008527;28;20296;-83
2022/11/09 01:24:03;;;;;;;;;;;15.40;72.20;;;;;;5013991;28;20055;-83
2022/11/09 01:26:29;;;;;;;;;;;15.30;72.60;;;;;;5010506;28;19925;-82
2022/11/09 01:28:55;;;;;;;;;;;15.20;72.80;;;;;;5008965;28;19913;-82
2022/11/09 01:31:21;;;;;;;;;;;15.30;72.20;;;;;;5023354;28;19997;-82
2022/11/09 01:33:47;;;;;;;;;;;15.20;72.50;;;;;;5014485;28;19917;-82
2022/11/09 01:36:17;;;;;;;;;;;15.30;72.30;;;;;;5006935;28;19917;-84
2022/11/09 01:38:43;;;;;;;;;;;15.20;72.70;;;;;;5033293;28;19921;-83
2022/11/09 01:41:13;;;;;;;;;;;15.30;72.50;;;;;;5032979;28;19913;-83
2022/11/09 01:43:38;;;;;;;;;;;15.30;72.30;;;;;;5014989;28;20000;-82
2022/11/09 01:46:08;;;;;;;;;;;15.20;72.80;;;;;;5019090;28;19971;-82
2022/11/09 01:48:49;;;;;;;;;;;15.30;72.50;;;;;;5015145;28;20385;-83
2022/11/09 01:51:18;;;;;;;;;;;15.20;72.60;;;;;;5008276;28;19972;-82
2022/11/09 01:53:45;;;;;;;;;;;15.20;72.80;;;;;;5009865;28;20000;-82
2022/11/09 01:56:12;;;;;;;;;;;15.30;72.60;;;;;;5028025;28;19925;-81
2022/11/09 01:58:49;;;;;;;;;;;15.20;72.80;;;;;;5032119;28;19944;-81
2022/11/09 02:01:16;;;;;;;;;;;15.20;72.90;;;;;;5029215;28;19917;-81
2022/11/09 02:03:45;;;;;;;;;;;15.10;73.30;;;;;;5011117;28;19921;-81
2022/11/09 02:06:12;;;;;;;;;;;15.20;73.00;;;;;;5014529;28;19913;-81
2022/11/09 02:08:38;;;;;;;;;;;15.10;73.20;;;;;;5027597;28;20007;-82
2022/11/09 02:11:07;;;;;;;;;;;15.30;72.70;;;;;;5006664;28;19917;-84
2022/11/09 02:13:33;;;;;;;;;;;15.10;73.10;;;;;;5002178;28;19920;-82
2022/11/09 02:15:59;;;;;;;;;;;15.00;73.40;;;;;;5019937;28;19913;-82
2022/11/09 02:18:25;;;;;;;;;;;15.10;73.40;;;;;;5011250;28;20568;-83
2022/11/09 02:20:52;;;;;;;;;;;15.10;73.40;;;;;;5011048;28;19921;-82
2022/11/09 02:23:18;;;;;;;;;;;15.10;73.30;;;;;;5012034;28;19917;-82
2022/11/09 02:25:45;;;;;;;;;;;14.90;73.80;;;;;;5010342;28;19931;-81
2022/11/09 02:28:11;;;;;;;;;;;14.90;73.80;;;;;;5015457;28;20392;-81
2022/11/09 02:30:37;;;;;;;;;;;15.00;73.50;;;;;;5011251;28;19918;-80
2022/11/09 02:33:03;;;;;;;;;;;14.90;73.60;;;;;;5031271;28;19914;-81
2022/11/09 02:35:28;;;;;;;;;;;14.90;73.50;;;;;;5012105;28;19917;-81
2022/11/09 02:37:54;;;;;;;;;;;14.90;73.70;;;;;;5012260;28;19921;-80
2022/11/09 02:40:22;;;;;;;;;;;14.90;73.80;;;;;;5024769;28;20236;-80
2022/11/09 02:42:48;;;;;;;;;;;14.90;73.50;;;;;;5039530;28;19913;-81
2022/11/09 02:45:13;;;;;;;;;;;14.90;73.70;;;;;;5015028;28;19948;-81
2022/11/09 02:47:39;;;;;;;;;;;14.80;73.80;;;;;;5026582;28;19912;-81
2022/11/09 02:50:04;;;;;;;;;;;14.80;73.80;;;;;;5019311;28;19913;-80
2022/11/09 02:52:30;;;;;;;;;;;14.80;73.70;;;;;;5013198;28;19924;-81
2022/11/09 02:54:56;;;;;;;;;;;14.80;73.80;;;;;;5035372;28;19929;-81
2022/11/09 02:57:21;;;;;;;;;;;14.80;74.00;;;;;;5021801;28;19917;-81
2022/11/09 02:59:47;;;;;;;;;;;14.70;74.10;;;;;;5033967;28;20315;-80
2022/11/09 03:02:12;;;;;;;;;;;14.70;74.20;;;;;;5043276;28;19940;-81
2022/11/09 03:04:38;;;;;;;;;;;14.70;74.10;;;;;;5022521;28;19936;-80
2022/11/09 03:07:03;;;;;;;;;;;14.60;74.50;;;;;;5038980;28;19924;-81
2022/11/09 03:09:29;;;;;;;;;;;14.60;74.50;;;;;;5019785;28;20363;-81
2022/11/09 03:11:54;;;;;;;;;;;14.70;74.30;;;;;;5017957;28;20149;-80
2022/11/09 03:14:20;;;;;;;;;;;14.60;74.10;;;;;;5029378;28;19952;-81
2022/11/09 03:16:45;;;;;;;;;;;14.60;74.60;;;;;;5037728;28;19920;-80
2022/11/09 03:19:11;;;;;;;;;;;14.50;74.70;;;;;;5023640;28;19967;-79
2022/11/09 03:21:36;;;;;;;;;;;14.50;74.80;;;;;;5035523;28;19914;-79
2022/11/09 03:24:02;;;;;;;;;;;14.50;74.90;;;;;;5022025;28;19949;-81
2022/11/09 03:26:27;;;;;;;;;;;14.50;74.80;;;;;;5042399;28;20004;-80
2022/11/09 03:28:53;;;;;;;;;;;14.50;74.90;;;;;;5043321;28;19917;-79
2022/11/09 03:31:18;;;;;;;;;;;14.70;74.40;;;;;;5039390;28;19952;-80
2022/11/09 03:33:43;;;;;;;;;;;14.60;74.60;;;;;;5038510;28;19924;-80
2022/11/09 03:36:09;;;;;;;;;;;14.50;75.10;;;;;;5041972;28;20011;-80
2022/11/09 03:38:34;;;;;;;;;;;14.50;75.10;;;;;;5040726;28;19939;-80
2022/11/09 03:41:00;;;;;;;;;;;14.50;74.80;;;;;;5019066;28;19921;-80
2022/11/09 03:43:26;;;;;;;;;;;14.60;74.90;;;;;;5032701;28;19919;-80
2022/11/09 03:45:52;;;;;;;;;;;14.60;74.60;;;;;;5037815;28;19913;-80
2022/11/09 03:48:17;;;;;;;;;;;14.60;74.50;;;;;;5018110;28;19933;-79
2022/11/09 03:50:43;;;;;;;;;;;14.70;74.20;;;;;;5035807;28;19948;-81
2022/11/09 03:53:08;;;;;;;;;;;14.70;74.30;;;;;;5028578;28;20405;-80
2022/11/09 03:55:34;;;;;;;;;;;14.70;74.40;;;;;;5015114;28;20376;-81
2022/11/09 03:57:59;;;;;;;;;;;14.80;74.10;;;;;;5033002;28;19921;-80
2022/11/09 04:00:25;;;;;;;;;;;14.70;74.40;;;;;;5017305;28;19913;-81
2022/11/09 04:02:51;;;;;;;;;;;14.80;74.10;;;;;;5010675;28;19971;-81
2022/11/09 04:05:17;;;;;;;;;;;14.80;74.10;;;;;;5029934;28;19936;-81
2022/11/09 04:07:50;;;;;;;;;;;14.80;74.10;;;;;;5002503;28;20284;-81
2022/11/09 04:10:15;;;;;;;;;;;14.80;74.40;;;;;;5029602;28;19925;-81
2022/11/09 04:12:41;;;;;;;;;;;14.90;74.00;;;;;;5012361;28;20369;-81
2022/11/09 04:15:06;;;;;;;;;;;15.00;74.00;;;;;;5033435;28;19940;-80
2022/11/09 04:17:32;;;;;;;;;;;14.90;74.10;;;;;;5027282;28;19983;-80
2022/11/09 04:19:57;;;;;;;;;;;14.80;74.40;;;;;;5012767;28;19975;-81
2022/11/09 04:22:23;;;;;;;;;;;14.90;74.50;;;;;;5014874;28;19913;-81
2022/11/09 04:24:48;;;;;;;;;;;14.90;74.50;;;;;;5027003;28;19925;-81
2022/11/09 04:27:14;;;;;;;;;;;14.90;76.20;;;;;;5026521;28;19922;-81
2022/11/09 04:29:39;;;;;;;;;;;14.70;77.50;;;;;;5006814;28;19913;-81
2022/11/09 04:32:05;;;;;;;;;;;14.70;78.00;;;;;;5023142;28;20024;-81
2022/11/09 04:34:30;;;;;;;;;;;14.60;78.30;;;;;;5017577;28;20044;-81
2022/11/09 04:36:56;;;;;;;;;;;14.50;78.60;;;;;;5013834;28;19909;-81
2022/11/09 04:39:21;;;;;;;;;;;14.50;78.90;;;;;;5012907;28;19927;-81
2022/11/09 04:41:47;;;;;;;;;;;14.60;78.90;;;;;;5026829;28;20472;-81
2022/11/09 04:44:12;;;;;;;;;;;14.60;78.50;;;;;;5025366;28;19945;-80
2022/11/09 04:46:38;;;;;;;;;;;14.60;78.30;;;;;;5032050;28;19999;-80
2022/11/09 04:49:03;;;;;;;;;;;14.60;78.40;;;;;;5019751;28;19921;-80
2022/11/09 04:51:29;;;;;;;;;;;14.70;78.20;;;;;;5023558;28;20024;-80
2022/11/09 04:53:55;;;;;;;;;;;14.60;78.50;;;;;;5043067;28;19960;-80
2022/11/09 04:56:21;;;;;;;;;;;14.60;78.70;;;;;;5043537;28;19913;-80
2022/11/09 04:58:48;;;;;;;;;;;14.50;78.40;;;;;;5042365;28;19943;-80
2022/11/09 05:01:13;;;;;;;;;;;14.60;78.40;;;;;;5023249;28;19917;-80
2022/11/09 05:03:39;;;;;;;;;;;14.60;78.30;;;;;;5022619;28;19968;-79
2022/11/09 05:06:30;;;;;;;;;;;14.60;78.40;;;;;;5037202;28;20442;-80
2022/11/09 05:08:51;;;;;;;;;;;14.60;78.10;;;;;;5027764;28;19955;-81
2022/11/09 05:11:17;;;;;;;;;;;14.60;78.20;;;;;;5026821;28;19967;-81
2022/11/09 05:13:42;;;;;;;;;;;14.60;78.00;;;;;;5033624;28;19917;-81
2022/11/09 05:16:08;;;;;;;;;;;14.80;78.00;;;;;;5034934;28;20308;-81
2022/11/09 05:18:33;;;;;;;;;;;14.70;77.70;;;;;;5029182;28;19917;-81
2022/11/09 05:20:59;;;;;;;;;;;14.70;78.10;;;;;;5032147;28;19920;-81
2022/11/09 05:26:09;;;;;;;;;;;14.50;78.50;;;;;;5028213;28;19920;-81
2022/11/09 05:28:34;;;;;;;;;;;14.50;79.20;;;;;;5026693;28;19917;-81
2022/11/09 05:31:00;;;;;;;;;;;14.50;78.90;;;;;;5027380;28;20358;-80
2022/11/09 05:33:25;;;;;;;;;;;14.50;78.70;;;;;;5008789;28;19921;-80
2022/11/09 05:35:53;;;;;;;;;;;14.50;78.90;;;;;;5028906;28;19917;-82
2022/11/09 05:38:18;;;;;;;;;;;14.50;79.00;;;;;;5030831;28;19959;-82
2022/11/09 05:40:46;;;;;;;;;;;14.40;79.20;;;;;;5010369;28;19921;-81
2022/11/09 05:43:11;;;;;;;;;;;14.30;79.20;;;;;;5032960;28;19952;-81
2022/11/09 05:45:37;;;;;;;;;;;14.30;79.80;;;;;;5037584;28;19913;-81
2022/11/09 05:48:03;;;;;;;;;;;14.20;80.10;;;;;;5021690;28;19917;-81
2022/11/09 05:50:29;;;;;;;;;;;14.20;80.20;;;;;;5015506;28;19917;-81
2022/11/09 05:52:57;;;;;;;;;;;14.10;80.30;;;;;;5014365;28;19921;-82
2022/11/09 05:55:22;;;;;;;;;;;14.20;80.10;;;;;;5016400;28;19968;-81
2022/11/09 05:57:48;;;;;;;;;;;14.20;80.40;;;;;;5027561;28;20361;-81
2022/11/09 06:00:14;;;;;;;;;;;14.10;80.20;;;;;;5023226;28;19921;-81
2022/11/09 06:02:39;;;;;;;;;;;14.00;80.30;;;;;;5029279;28;19913;-81
2022/11/09 06:05:05;;;;;;;;;;;14.00;80.20;;;;;;5007026;28;20265;-81
2022/11/09 06:07:31;;;;;;;;;;;14.10;79.80;;;;;;5006957;28;20339;-80
2022/11/09 06:09:56;;;;;;;;;;;14.10;79.80;;;;;;5031981;28;20043;-80
2022/11/09 06:12:22;;;;;;;;;;;14.00;79.90;;;;;;5015987;28;19956;-80
2022/11/09 06:14:47;;;;;;;;;;;13.90;80.00;;;;;;5024195;28;21385;-81
2022/11/09 06:17:13;;;;;;;;;;;13.90;80.00;;;;;;5026476;28;19948;-80
2022/11/09 06:19:38;;;;;;;;;;;13.90;80.10;;;;;;5026484;28;19920;-80
2022/11/09 06:22:04;;;;;;;;;;;13.90;80.10;;;;;;5023320;28;20034;-82
2022/11/09 06:24:29;;;;;;;;;;;13.90;80.20;;;;;;5047864;23;20363;-80
2022/11/09 06:26:55;;;;;;;;;;;13.90;80.30;;;;;;5051516;28;19912;-80
2022/11/09 06:29:21;;;;;;;;;;;13.90;80.30;;;;;;5052750;28;20370;-81
2022/11/09 06:31:47;;;;;;;;;;;13.90;80.20;;;;;;5050652;28;19939;-82
2022/11/09 06:34:13;;;;;;;;;;;13.90;80.30;;;;;;5064588;28;19916;-81
2022/11/09 06:36:39;;;;;;;;;;;13.90;79.90;;;;;;5061407;28;19990;-82
2022/11/09 06:39:07;;;;;;;;;;;13.90;80.20;;;;;;5073174;28;19920;-81
2022/11/09 06:41:32;;;;;;;;;;;13.90;80.10;;;;;;5071853;28;19916;-86
2022/11/09 06:43:57;;;;;;;;;;;13.90;80.20;;;;;;5068492;28;19951;-82
2022/11/09 06:46:23;;;;;;;;;;;14.00;79.90;;;;;;5048614;28;20003;-83
2022/11/09 06:48:48;;;;;;;;;;;13.90;79.90;;;;;;5054879;28;19959;-83
2022/11/09 06:51:14;;;;;;;;;;;13.90;80.00;;;;;;5075651;28;19908;-81
2022/11/09 06:53:40;;;;;;;;;;;13.90;80.00;;;;;;5067723;28;19917;-81
2022/11/09 06:56:06;;;;;;;;;;;13.80;79.90;;;;;;5060601;28;19916;-81
2022/11/09 06:58:31;;;;;;;;;;;13.80;80.40;;;;;;5057137;28;19923;-82
2022/11/09 07:00:57;;;;;;;;;;;13.80;80.40;;;;;;5052657;28;19916;-82
2022/11/09 07:03:22;;;;;;;;;;;13.80;80.20;;;;;;5072473;28;19987;-83
2022/11/09 07:05:49;;;;;;;;;;;13.70;80.10;;;;;;5055842;28;20641;-80
2022/11/09 07:08:15;;;;;;;;;;;13.70;80.20;;;;;;5078343;28;19932;-81
2022/11/09 07:10:40;;;;;;;;;;;13.70;80.10;;;;;;5057433;28;19917;-83
2022/11/09 07:13:06;;;;;;;;;;;13.60;80.00;;;;;;5072071;28;19913;-80
2022/11/09 07:15:32;;;;;;;;;;;13.70;80.10;;;;;;5055803;28;19948;-83
2022/11/09 07:17:58;;;;;;;;;;;13.60;80.10;;;;;;5057892;28;19912;-82
2022/11/09 07:20:24;;;;;;;;;;;13.60;80.10;;;;;;5057159;28;20309;-83
2022/11/09 07:22:50;;;;;;;;;;;13.60;80.30;;;;;;5072183;28;19956;-82
2022/11/09 07:25:15;;;;;;;;;;;13.60;80.30;;;;;;5073731;28;19928;-81
2022/11/09 07:27:41;;;;;;;;;;;13.60;80.50;;;;;;5062584;28;20405;-81
2022/11/09 07:30:07;;;;;;;;;;;13.60;80.40;;;;;;5057464;28;19994;-83
2022/11/09 07:32:33;;;;;;;;;;;13.60;80.20;;;;;;5076738;28;19912;-82
2022/11/09 07:34:58;;;;;;;;;;;13.60;80.20;;;;;;5067819;28;19923;-82
2022/11/09 07:37:24;;;;;;;;;;;13.50;80.60;;;;;;5058245;28;19916;-81
2022/11/09 07:39:49;;;;;;;;;;;13.50;80.20;;;;;;5071188;28;20389;-80
2022/11/09 07:42:15;;;;;;;;;;;13.60;80.00;;;;;;5074975;28;19908;-82
2022/11/09 07:44:40;;;;;;;;;;;13.60;80.10;;;;;;5058928;28;19988;-81
2022/11/09 07:47:09;;;;;;;;;;;13.60;79.70;;;;;;5072447;28;19912;-81
2022/11/09 07:49:34;;;;;;;;;;;13.60;79.80;;;;;;5045245;28;20347;-82
2022/11/09 07:51:59;;;;;;;;;;;13.70;79.80;;;;;;5069498;28;19916;-82
2022/11/09 07:54:25;;;;;;;;;;;13.70;79.80;;;;;;5061188;28;19919;-82
2022/11/09 07:56:51;;;;;;;;;;;13.70;79.90;;;;;;5073931;28;19950;-82
2022/11/09 07:59:16;;;;;;;;;;;13.70;79.80;;;;;;5075194;28;20003;-82
2022/11/09 08:01:41;;;;;;;;;;;13.80;79.60;;;;;;5074927;28;19920;-82
2022/11/09 08:04:07;;;;;;;;;;;13.70;79.40;;;;;;5072062;28;19927;-82
2022/11/09 08:06:33;;;;;;;;;;;13.70;79.50;;;;;;5066733;28;19924;-82
2022/11/09 08:08:58;;;;;;;;;;;13.70;79.10;;;;;;5055146;28;20435;-82
2022/11/09 08:11:24;;;;;;;;;;;13.60;79.50;;;;;;5074032;28;19920;-82
2022/11/09 08:13:50;;;;;;;;;;;13.60;79.40;;;;;;5066934;28;19969;-81
2022/11/09 08:16:16;;;;;;;;;;;13.60;79.70;;;;;;5067870;28;19913;-81
2022/11/09 08:18:41;;;;;;;;;;;13.60;79.90;;;;;;5068685;28;20007;-80
2022/11/09 08:21:06;;;;;;;;;;;13.60;79.60;;;;;;5071106;28;19940;-81
2022/11/09 08:23:35;;;;;;;;;;;13.60;79.70;;;;;;5077597;28;19923;-82
2022/11/09 08:26:01;;;;;;;;;;;13.60;79.90;;;;;;5068029;28;20000;-82
2022/11/09 08:28:27;;;;;;;;;;;13.60;80.00;;;;;;5077084;28;19919;-82
2022/11/09 08:30:57;;;;;;;;;;;13.60;80.00;;;;;;5064410;28;19909;-82
2022/11/09 08:33:22;;;;;;;;;;;13.60;80.00;;;;;;5060258;28;19916;-82
2022/11/09 08:35:48;;;;;;;;;;;13.60;80.10;;;;;;5063884;28;19934;-81
2022/11/09 08:38:13;;;;;;;;;;;13.60;80.00;;;;;;5082447;28;19935;-80
2022/11/09 08:40:39;;;;;;;;;;;13.70;80.10;;;;;;5095509;28;19904;-80
2022/11/09 08:43:05;;;;;;;;;;;13.70;79.60;;;;;;5070296;28;19912;-82
2022/11/09 08:45:32;;;;;;;;;;;13.70;79.90;;;;;;5068794;28;20270;-81
2022/11/09 08:47:58;;;;;;;;;;;13.70;80.00;;;;;;5059673;28;19948;-81
2022/11/09 08:50:24;;;;;;;;;;;13.80;80.10;;;;;;5056350;28;19916;-81
2022/11/09 08:52:49;;;;;;;;;;;13.70;80.20;;;;;;5073108;28;19995;-80
2022/11/09 08:55:15;;;;;;;;;;;13.70;80.20;;;;;;5073212;28;20392;-82
2022/11/09 08:57:40;;;;;;;;;;;13.80;80.20;;;;;;5064735;28;19916;-82
2022/11/09 09:00:06;;;;;;;;;;;13.90;79.90;;;;;;5086824;28;19912;-79
2022/11/09 09:02:31;;;;;;;;;;;13.90;80.00;;;;;;5080065;28;19897;-80
2022/11/09 09:04:57;;;;;;;;;;;13.90;80.20;;;;;;5072121;28;20393;-82
2022/11/09 09:07:22;;;;;;;;;;;13.90;80.00;;;;;;5080930;28;19912;-80
2022/11/09 09:09:48;;;;;;;;;;;14.00;79.80;;;;;;5063832;28;20374;-82
2022/11/09 09:12:13;;;;;;;;;;;14.10;79.80;;;;;;5077881;28;19958;-82
2022/11/09 09:14:39;;;;;;;;;;;14.10;79.50;;;;;;5076403;28;19913;-81
2022/11/09 09:17:04;;;;;;;;;;;14.10;79.50;;;;;;5068990;28;19912;-81
2022/11/09 09:19:30;;;;;;;;;;;14.10;79.40;;;;;;5058581;28;20053;-81
2022/11/09 09:21:56;;;;;;;;;;;14.20;79.50;;;;;;5067284;28;19966;-82
2022/11/09 09:24:22;;;;;;;;;;;14.20;79.50;;;;;;5072468;28;20413;-80
2022/11/09 09:26:47;;;;;;;;;;;14.30;79.00;;;;;;5073622;28;19995;-81
2022/11/09 09:29:13;;;;;;;;;;;14.30;77.90;;;;;;5057965;28;20595;-80
2022/11/09 09:31:39;;;;;;;;;;;14.40;77.80;;;;;;5074276;28;19912;-81
2022/11/09 09:34:04;;;;;;;;;;;14.50;77.60;;;;;;5077528;28;19920;-81
2022/11/09 09:36:30;;;;;;;;;;;14.60;76.90;;;;;;5076576;28;19917;-82
2022/11/09 09:38:56;;;;;;;;;;;14.60;75.90;;;;;;5075381;28;19920;-81
2022/11/09 09:41:33;;;;;;;;;;;14.70;74.80;;;;;;5074740;28;19920;-80
2022/11/09 09:44:01;;;;;;;;;;;14.70;74.90;;;;;;5078822;28;20528;-80
2022/11/09 09:46:34;;;;;;;;;;;14.80;73.70;;;;;;5055634;28;19968;-81
2022/11/09 09:49:13;;;;;;;;;;;14.80;73.80;;;;;;5067508;28;19913;-81
2022/11/09 09:51:39;;;;;;;;;;;14.80;73.90;;;;;;5055341;28;19909;-79
2022/11/09 09:54:09;;;;;;;;;;;14.70;73.30;;;;;;5050452;28;19912;-80
2022/11/09 09:56:37;;;;;;;;;;;14.70;73.40;;;;;;5072404;28;19931;-81
2022/11/09 09:59:13;;;;;;;;;;;14.70;72.60;;;;;;5071172;28;19912;-81
2022/11/09 10:01:40;;;;;;;;;;;14.80;72.30;;;;;;5074020;28;19916;-81
2022/11/09 10:04:14;;;;;;;;;;;14.90;70.60;;;;;;5073185;28;19913;-80
2022/11/09 10:06:46;;;;;;;;;;;14.80;71.00;;;;;;5073257;28;19954;-80
2022/11/09 10:09:20;;;;;;;;;;;14.80;71.00;;;;;;5064961;28;19919;-82
2022/11/09 10:11:45;;;;;;;;;;;14.70;70.60;;;;;;5074085;28;20274;-81
2022/11/09 10:14:11;;;;;;;;;;;14.80;70.40;;;;;;5073226;28;19958;-80
2022/11/09 10:16:48;;;;;;;;;;;14.90;70.30;;;;;;5055642;28;19908;-80
2022/11/09 10:19:13;;;;;;;;;;;14.90;70.40;;;;;;5078919;28;19912;-81
2022/11/09 10:21:52;;;;;;;;;;;14.90;69.40;;;;;;5057722;28;20437;-83
2022/11/09 10:24:17;;;;;;;;;;;14.90;69.70;;;;;;5072542;28;19917;-81
2022/11/09 10:26:45;;;;;;;;;;;15.00;68.90;;;;;;5060924;28;19913;-81
2022/11/09 10:29:21;;;;;;;;;;;15.00;68.30;;;;;;5041299;28;19916;-80
2022/11/09 10:31:47;;;;;;;;;;;15.00;67.90;;;;;;5077008;28;19913;-82
2022/11/09 10:34:18;;;;;;;;;;;15.00;67.90;;;;;;5076458;28;19912;-81
2022/11/09 10:36:54;;;;;;;;;;;15.00;67.90;;;;;;5075017;28;20332;-81
2022/11/09 10:39:22;;;;;;;;;;;15.00;68.20;;;;;;5075905;28;19920;-82
2022/11/09 10:41:48;;;;;;;;;;;15.00;67.90;;;;;;5058079;28;20598;-82
2022/11/09 10:44:14;;;;;;;;;;;15.10;67.80;;;;;;5074295;28;19932;-80
2022/11/09 10:46:58;;;;;;;;;;;15.10;67.20;;;;;;5061287;28;19908;-81
2022/11/09 10:49:24;;;;;;;;;;;15.10;67.50;;;;;;5063780;28;19944;-82
2022/11/09 10:51:49;;;;;;;;;;;15.00;67.40;;;;;;5058328;28;20400;-80
2022/11/09 10:54:19;;;;;;;;;;;15.00;67.30;;;;;;5071874;28;19915;-82
2022/11/09 10:56:57;;;;;;;;;;;14.90;67.00;;;;;;5074518;28;20330;-82
2022/11/09 10:59:30;;;;;;;;;;;14.90;67.60;;;;;;5073639;28;19909;-81
2022/11/09 11:01:55;;;;;;;;;;;15.00;67.50;;;;;;5075894;28;20365;-79
2022/11/09 11:04:22;;;;;;;;;;;14.90;67.70;;;;;;5079651;28;19915;-81
2022/11/09 11:06:48;;;;;;;;;;;15.00;68.00;;;;;;5084182;28;19923;-81
2022/11/09 11:09:15;;;;;;;;;;;15.00;68.80;;;;;;5072726;28;19923;-82
2022/11/09 11:11:40;;;;;;;;;;;15.10;67.90;;;;;;5068495;28;20545;-82
2022/11/09 11:14:12;;;;;;;;;;;15.10;68.20;;;;;;5063199;28;19916;-82
2022/11/09 11:16:38;;;;;;;;;;;15.20;68.40;;;;;;5069739;28;19920;-83
2022/11/09 11:19:04;;;;;;;;;;;15.20;66.80;;;;;;5058003;28;19912;-81
2022/11/09 11:21:30;;;;;;;;;;;15.30;66.10;;;;;;5068156;28;20354;-80
2022/11/09 11:24:11;;;;;;;;;;;15.30;65.20;;;;;;5066668;28;21267;-80
2022/11/09 11:26:39;;;;;;;;;;;15.20;66.10;;;;;;5040016;28;20382;-81
2022/11/09 11:29:24;;;;;;;;;;;15.20;66.20;;;;;;5057268;28;20463;-81
2022/11/09 11:31:50;;;;;;;;;;;15.20;66.20;;;;;;5056636;28;19984;-80
2022/11/09 11:34:16;;;;;;;;;;;15.30;65.50;;;;;;5058977;28;19963;-81
2022/11/09 11:36:53;;;;;;;;;;;15.30;64.20;;;;;;5075030;28;20008;-80
2022/11/09 11:39:22;;;;;;;;;;;15.30;64.10;;;;;;5074906;28;20320;-79
2022/11/09 11:41:57;;;;;;;;;;;15.20;64.30;;;;;;5074774;28;20567;-80
2022/11/09 11:44:39;;;;;;;;;;;15.10;64.00;;;;;;5074665;28;19921;-80
2022/11/09 11:47:09;;;;;;;;;;;15.20;63.60;;;;;;5075781;28;19908;-80
2022/11/09 11:49:41;;;;;;;;;;;15.20;62.80;;;;;;5055829;28;19920;-80
2022/11/09 11:52:09;;;;;;;;;;;15.10;62.90;;;;;;5057526;28;19913;-80
2022/11/09 11:54:37;;;;;;;;;;;15.10;62.90;;;;;;5089935;28;19909;-81
2022/11/09 11:57:19;;;;;;;;;;;15.00;63.10;;;;;;5056281;28;19909;-80
2022/11/09 11:59:54;;;;;;;;;;;15.10;62.80;;;;;;5054596;28;19909;-80
2022/11/09 12:02:32;;;;;;;;;;;15.00;62.90;;;;;;5042276;28;19916;-79
2022/11/09 12:05:20;;;;;;;;;;;15.10;62.30;;;;;;5056210;28;19920;-80
2022/11/09 12:07:52;;;;;;;;;;;15.10;61.80;;;;;;5063507;28;20536;-79
2022/11/09 12:10:36;;;;;;;;;;;15.20;61.90;;;;;;5063888;28;19908;-81
2022/11/09 12:13:12;;;;;;;;;;;15.10;62.50;;;;;;5088904;28;19908;-79
2022/11/09 12:15:53;;;;;;;;;;;15.20;61.90;;;;;;5117456;28;19896;-79
2022/11/09 12:18:24;;;;;;;;;;;15.30;61.70;;;;;;5085730;28;20363;-81
2022/11/09 12:20:49;;;;;;;;;;;15.30;60.80;;;;;;5059935;28;19931;-81
2022/11/09 12:23:21;;;;;;;;;;;15.30;61.40;;;;;;4699320;22;19929;-87
2022/11/09 12:25:52;;;;;;;;;;;15.50;60.40;;;;;;5045426;28;20402;-87
2022/11/09 12:28:17;;;;;;;;;;;15.60;59.80;;;;;;5036600;28;19916;-87
2022/11/09 12:31:02;;;;;;;;;;;15.60;60.00;;;;;;5054369;28;19919;-88
2022/11/09 12:33:36;;;;;;;;;;;15.60;59.90;;;;;;5052107;28;19908;-88
2022/11/09 12:36:08;;;;;;;;;;;15.60;59.50;;;;;;5052977;28;19909;-88
2022/11/09 12:38:50;;;;;;;;;;;15.60;58.70;;;;;;5049882;28;19948;-87
2022/11/09 12:41:18;;;;;;;;;;;15.60;59.50;;;;;;5032523;28;19915;-88
2022/11/09 12:43:56;;;;;;;;;;;15.50;59.50;;;;;;5032570;28;19948;-88
2022/11/09 12:46:26;;;;;;;;;;;15.60;59.50;;;;;;5048351;28;19948;-88
2022/11/09 12:48:53;;;;;;;;;;;15.60;58.80;;;;;;5052792;28;19940;-88
2022/11/09 12:51:19;;;;;;;;;;;15.70;59.40;;;;;;5047493;28;19920;-91
2022/11/09 12:53:44;;;;;;;;;;;15.80;59.20;;;;;;5044672;28;19913;-86
2022/11/09 12:56:14;;;;;;;;;;;15.80;58.40;;;;;;5042475;28;19924;-90
2022/11/09 12:58:39;;;;;;;;;;;15.70;58.70;;;;;;5049141;28;19952;-83
2022/11/09 13:01:10;;;;;;;;;;;15.60;59.10;;;;;;5053540;28;20401;-83
2022/11/09 13:03:37;;;;;;;;;;;15.50;59.50;;;;;;5046794;28;19917;-82
2022/11/09 13:06:14;;;;;;;;;;;15.60;59.50;;;;;;5049859;28;19913;-84
2022/11/09 13:08:40;;;;;;;;;;;15.60;59.50;;;;;;5047025;28;19912;-85
2022/11/09 13:11:07;;;;;;;;;;;15.60;59.30;;;;;;5053452;28;19996;-85
2022/11/09 13:13:33;;;;;;;;;;;15.50;59.50;;;;;;5052000;28;19920;-84
2022/11/09 13:16:04;;;;;;;;;;;15.60;59.70;;;;;;5047645;28;19912;-84
2022/11/09 13:18:29;;;;;;;;;;;15.60;59.50;;;;;;5044214;28;19916;-85
2022/11/09 13:20:54;;;;;;;;;;;15.50;59.90;;;;;;5041307;28;19944;-84
2022/11/09 13:23:26;;;;;;;;;;;15.50;60.20;;;;;;5051313;28;20036;-83
2022/11/09 13:25:51;;;;;;;;;;;15.50;60.30;;;;;;5049890;28;20007;-85
2022/11/09 13:28:26;;;;;;;;;;;15.60;59.80;;;;;;5055627;28;19928;-83
2022/11/09 13:30:52;;;;;;;;;;;15.50;60.10;;;;;;5057838;28;19917;-86
2022/11/09 13:33:19;;;;;;;;;;;15.50;60.10;;;;;;5047985;28;19917;-85
2022/11/09 13:35:44;;;;;;;;;;;15.50;60.20;;;;;;5057434;28;20082;-83
2022/11/09 13:38:14;;;;;;;;;;;15.40;60.30;;;;;;5050076;28;19959;-85
2022/11/09 13:40:41;;;;;;;;;;;15.40;60.70;;;;;;5049807;28;20277;-84
2022/11/09 13:43:09;;;;;;;;;;;15.40;60.80;;;;;;5055096;28;19917;-84
2022/11/09 13:45:37;;;;;;;;;;;15.50;60.90;;;;;;5053858;28;19909;-86
2022/11/09 13:48:04;;;;;;;;;;;15.50;60.80;;;;;;5052344;28;19921;-85
2022/11/09 13:50:31;;;;;;;;;;;15.50;60.60;;;;;;5045548;28;19928;-86
2022/11/09 13:52:57;;;;;;;;;;;15.50;60.60;;;;;;5035204;28;20051;-85
2022/11/09 13:55:39;;;;;;;;;;;15.40;61.00;;;;;;5046705;28;19913;-86
2022/11/09 13:58:23;;;;;;;;;;;15.30;61.40;;;;;;5033746;28;19909;-84
2022/11/09 14:00:49;;;;;;;;;;;15.30;61.20;;;;;;5045709;28;20377;-85
2022/11/09 14:03:35;;;;;;;;;;;15.30;61.30;;;;;;5050712;28;20003;-85
2022/11/09 14:06:01;;;;;;;;;;;15.40;61.40;;;;;;5041952;28;19919;-86
2022/11/09 14:08:27;;;;;;;;;;;15.30;61.50;;;;;;5045555;28;19913;-85
2022/11/09 14:11:12;;;;;;;;;;;15.30;61.50;;;;;;5036698;28;19983;-85
2022/11/09 14:13:55;;;;;;;;;;;15.30;61.70;;;;;;5040069;28;19913;-85
2022/11/09 14:16:35;;;;;;;;;;;15.10;62.20;;;;;;5047814;28;19924;-84
2022/11/09 14:19:23;;;;;;;;;;;15.20;62.40;;;;;;5038476;28;20011;-89
2022/11/09 14:21:50;;;;;;;;;;;15.30;62.70;;;;;;5044845;28;20003;-88